createdAt,value
2022-11-15T00:00:22.083Z,39.15
2022-11-15T00:03:08.184Z,40.85
2022-11-15T00:05:55.184Z,43.85
2022-11-15T00:08:41.220Z,46.35
2022-11-15T00:11:28.204Z,43.83
2022-11-15T00:14:14.169Z,44.30
2022-11-15T00:17:00.487Z,44.00
2022-11-15T00:19:46.678Z,41.75
2022-11-15T00:22:34.455Z,47.22
2022-11-15T00:25:20.899Z,43.83
2022-11-15T00:28:07.261Z,44.10
2022-11-15T00:30:53.705Z,50.40
2022-11-15T00:33:40.043Z,51.92
2022-11-15T00:36:26.387Z,49.78
2022-11-15T00:39:12.769Z,50.35
2022-11-15T00:41:59.050Z,54.30
2022-11-15T00:44:45.397Z,51.45
2022-11-15T00:47:31.760Z,48.25
2022-11-15T00:50:18.615Z,49.53
2022-11-15T00:53:04.870Z,47.08
2022-11-15T00:55:51.787Z,53.90
2022-11-15T00:58:38.016Z,57.25
2022-11-15T01:01:24.278Z,51.35
2022-11-15T01:04:10.560Z,53.13
2022-11-15T01:06:56.937Z,50.83
2022-11-15T01:09:43.317Z,51.22
2022-11-15T01:12:29.565Z,48.03
2022-11-15T01:15:15.784Z,51.92
2022-11-15T01:18:02.124Z,48.35
2022-11-15T01:20:48.308Z,49.08
2022-11-15T01:23:35.141Z,50.28
2022-11-15T01:26:21.538Z,54.08
2022-11-15T01:29:08.047Z,53.65
2022-11-15T01:31:55.087Z,49.53
2022-11-15T01:34:41.265Z,53.25
2022-11-15T01:37:27.510Z,52.90
2022-11-15T01:40:14.079Z,51.05
2022-11-15T01:43:00.208Z,54.90
2022-11-15T01:45:52.206Z,53.67
2022-11-15T01:48:38.584Z,50.42
2022-11-15T01:51:29.506Z,56.00
2022-11-15T01:54:19.820Z,53.85
2022-11-15T01:57:11.367Z,56.30
2022-11-15T01:59:58.318Z,58.53
2022-11-15T02:02:45.067Z,56.30
2022-11-15T02:05:32.641Z,51.85
2022-11-15T02:08:21.011Z,53.28
2022-11-15T02:11:10.982Z,55.55
2022-11-15T02:14:00.519Z,56.35
2022-11-15T02:17:15.691Z,59.28
2022-11-15T02:23:16.949Z,61.47
2022-11-15T02:26:08.826Z,66.68
2022-11-15T02:29:25.246Z,60.88
2022-11-15T02:32:25.909Z,61.17
2022-11-15T02:35:38.535Z,67.82
2022-11-15T02:39:09.770Z,71.95
2022-11-15T02:42:03.271Z,66.80
2022-11-15T02:44:51.310Z,71.10
2022-11-15T02:47:46.680Z,67.10
2022-11-15T02:50:35.270Z,73.68
2022-11-15T02:53:26.553Z,68.93
2022-11-15T02:56:13.714Z,68.10
2022-11-15T02:59:13.545Z,71.35
2022-11-15T03:02:29.715Z,70.40
2022-11-15T03:05:33.412Z,65.78
2022-11-15T03:08:31.927Z,68.50
2022-11-15T03:11:21.461Z,64.28
2022-11-15T03:14:19.712Z,64.70
2022-11-15T03:17:27.471Z,66.20
2022-11-15T03:20:17.911Z,68.10
2022-11-15T03:23:09.120Z,66.10
2022-11-15T03:25:57.411Z,68.90
2022-11-15T03:29:00.572Z,72.60
2022-11-15T03:31:57.966Z,66.55
2022-11-15T03:35:09.126Z,65.38
2022-11-15T03:38:19.878Z,64.63
2022-11-15T03:41:21.128Z,56.00
2022-11-15T03:44:32.809Z,60.05
2022-11-15T03:47:43.227Z,59.22
2022-11-15T03:50:30.562Z,59.92
2022-11-15T03:53:17.928Z,62.17
2022-11-15T03:56:04.849Z,56.85
2022-11-15T03:58:50.922Z,63.00
2022-11-15T04:01:37.272Z,60.42
2022-11-15T04:04:23.633Z,58.50
2022-11-15T04:07:10.202Z,66.20
2022-11-15T04:10:06.403Z,63.33
2022-11-15T04:12:53.183Z,59.45
2022-11-15T04:15:39.227Z,62.13
2022-11-15T04:18:26.082Z,62.72
2022-11-15T04:21:31.046Z,58.67
2022-11-15T04:24:17.933Z,57.20
2022-11-15T04:27:04.572Z,55.65
2022-11-15T04:29:50.783Z,61.20
2022-11-15T04:32:37.029Z,56.33
2022-11-15T04:35:23.358Z,55.95
2022-11-15T04:38:11.745Z,56.47
2022-11-15T04:40:57.951Z,59.25
2022-11-15T04:43:44.176Z,57.95
2022-11-15T04:46:30.236Z,57.05
2022-11-15T04:49:16.550Z,62.42
2022-11-15T04:52:03.057Z,62.08
2022-11-15T04:54:49.172Z,62.13
2022-11-15T04:57:36.008Z,61.00
2022-11-15T05:00:22.424Z,59.05
2022-11-15T05:03:29.505Z,61.78
2022-11-15T05:06:15.982Z,59.88
2022-11-15T05:09:02.446Z,65.35
2022-11-15T05:11:48.926Z,57.05
2022-11-15T05:14:35.209Z,59.25
2022-11-15T05:17:21.400Z,63.13
2022-11-15T05:20:08.251Z,61.78
2022-11-15T05:22:56.480Z,68.13
2022-11-15T05:25:43.099Z,63.60
2022-11-15T05:28:29.444Z,62.65
2022-11-15T05:31:17.494Z,64.18
2022-11-15T05:34:06.420Z,65.40
2022-11-15T05:36:53.326Z,66.60
2022-11-15T05:39:39.538Z,66.30
2022-11-15T05:42:27.845Z,69.10
2022-11-15T05:45:14.534Z,69.68
2022-11-15T05:48:06.632Z,69.30
2022-11-15T05:50:53.614Z,70.47
2022-11-15T05:53:40.039Z,74.68
2022-11-15T05:56:27.068Z,72.53
2022-11-15T05:59:14.136Z,71.57
2022-11-15T06:02:00.646Z,73.10
2022-11-15T06:04:47.300Z,78.45
2022-11-15T06:07:33.319Z,71.63
2022-11-15T06:10:19.693Z,66.53
2022-11-15T06:13:06.294Z,67.82
2022-11-15T06:15:56.002Z,67.18
2022-11-15T06:18:42.270Z,71.80
2022-11-15T06:21:31.183Z,72.30
2022-11-15T06:24:17.325Z,68.80
2022-11-15T06:27:03.557Z,72.13
2022-11-15T06:29:49.749Z,73.95
2022-11-15T06:32:36.008Z,76.78
2022-11-15T06:35:22.147Z,73.72
2022-11-15T06:38:11.683Z,75.32
2022-11-15T06:41:04.660Z,76.28
2022-11-15T06:43:51.223Z,73.93
2022-11-15T06:46:37.432Z,79.65
2022-11-15T06:49:23.638Z,80.28
2022-11-15T06:52:09.809Z,77.35
2022-11-15T06:54:56.521Z,81.93
2022-11-15T06:57:53.414Z,74.13
2022-11-15T07:00:39.957Z,79.53
2022-11-15T07:03:27.107Z,75.55
2022-11-15T07:06:13.490Z,78.15
2022-11-15T07:08:59.672Z,74.32
2022-11-15T07:11:45.894Z,71.60
2022-11-15T07:14:32.117Z,81.85
2022-11-15T07:17:18.577Z,75.93
2022-11-15T07:20:05.121Z,77.88
2022-11-15T07:22:51.623Z,75.18
2022-11-15T07:25:37.989Z,82.10
2022-11-15T07:28:24.232Z,73.32
2022-11-15T07:31:11.220Z,76.38
2022-11-15T07:33:57.544Z,80.90
2022-11-15T07:36:43.531Z,77.18
2022-11-15T07:39:29.644Z,78.32
2022-11-15T07:42:51.212Z,74.78
2022-11-15T07:45:43.725Z,70.63
2022-11-15T07:48:42.847Z,66.63
2022-11-15T07:51:30.280Z,71.72
2022-11-15T07:54:16.673Z,75.72
2022-11-15T07:57:07.321Z,70.68
2022-11-15T07:59:53.959Z,66.40
2022-11-15T08:02:40.957Z,63.67
2022-11-15T08:05:27.647Z,70.55
2022-11-15T08:08:14.233Z,56.33
2022-11-15T08:11:00.655Z,65.82
2022-11-15T08:13:47.019Z,62.15
2022-11-15T08:16:33.369Z,58.75
2022-11-15T08:19:19.428Z,63.22
2022-11-15T08:22:05.695Z,67.75
2022-11-15T08:24:51.947Z,65.47
2022-11-15T08:27:38.329Z,62.90
2022-11-15T08:30:25.578Z,66.60
2022-11-15T08:33:15.532Z,68.18
2022-11-15T08:36:02.681Z,61.92
2022-11-15T08:38:48.727Z,60.05
2022-11-15T08:41:37.817Z,70.28
2022-11-15T08:44:25.101Z,59.58
2022-11-15T08:47:14.665Z,65.63
2022-11-15T08:50:00.977Z,69.32
2022-11-15T08:52:49.212Z,63.67
2022-11-15T08:55:38.296Z,63.15
2022-11-15T08:58:24.676Z,69.18
2022-11-15T09:01:21.856Z,71.00
2022-11-15T09:04:08.441Z,63.42
2022-11-15T09:06:54.646Z,52.78
2022-11-15T09:09:41.914Z,54.47
2022-11-15T09:12:28.183Z,51.33
2022-11-15T09:15:14.411Z,56.03
2022-11-15T09:18:00.904Z,56.33
2022-11-15T09:20:47.551Z,57.70
2022-11-15T09:23:34.136Z,58.70
2022-11-15T09:26:20.718Z,55.33
2022-11-15T09:29:06.835Z,59.05
2022-11-15T09:31:56.275Z,53.45
2022-11-15T09:34:42.590Z,50.67
2022-11-15T09:37:28.875Z,48.30
2022-11-15T09:40:18.499Z,47.95
2022-11-15T09:43:51.919Z,47.60
2022-11-15T09:47:05.351Z,45.25
2022-11-15T09:50:21.246Z,43.53
2022-11-15T09:52:49.722Z,44.78
2022-11-15T09:55:22.365Z,52.05
2022-11-15T09:58:01.700Z,47.25
2022-11-15T10:00:50.191Z,50.08
2022-11-15T10:03:23.020Z,50.03
2022-11-15T10:05:55.194Z,53.90
2022-11-15T10:08:32.081Z,53.22
2022-11-15T10:14:05.974Z,47.42
2022-11-15T10:17:03.051Z,52.38
2022-11-15T10:19:42.346Z,56.70
2022-11-15T10:22:31.020Z,52.78
2022-11-15T10:25:21.769Z,48.20
2022-11-15T10:27:56.581Z,53.92
2022-11-15T10:30:30.905Z,53.90
2022-11-15T10:32:58.804Z,54.33
2022-11-15T10:35:28.022Z,46.22
2022-11-15T10:38:08.463Z,49.90
2022-11-15T10:40:37.722Z,47.35
2022-11-15T10:43:20.018Z,51.20
2022-11-15T10:45:48.707Z,45.95
2022-11-15T10:48:19.535Z,45.30
2022-11-15T10:50:49.362Z,47.60
2022-11-15T10:53:26.187Z,46.88
2022-11-15T10:56:06.332Z,47.55
2022-11-15T10:58:44.878Z,43.20
2022-11-15T11:01:20.199Z,46.60
2022-11-15T11:04:00.336Z,47.30
2022-11-15T11:06:28.837Z,44.08
2022-11-15T11:09:06.218Z,41.72
2022-11-15T11:12:01.104Z,43.80
2022-11-15T11:14:34.537Z,44.17
2022-11-15T11:17:33.124Z,43.95
2022-11-15T11:20:13.175Z,48.42
2022-11-15T11:23:21.676Z,48.05
2022-11-15T11:26:02.700Z,47.72
2022-11-15T11:28:54.358Z,43.00
2022-11-15T11:31:28.160Z,49.72
2022-11-15T11:34:49.225Z,47.85
2022-11-15T11:37:28.970Z,49.60
2022-11-15T11:40:25.463Z,48.08
2022-11-15T11:43:00.494Z,49.83
2022-11-15T11:45:54.303Z,45.80
2022-11-15T11:48:38.140Z,48.92
2022-11-15T11:51:43.192Z,56.15
2022-11-15T11:54:20.417Z,56.30
2022-11-15T11:56:49.568Z,56.97
2022-11-15T11:59:39.754Z,56.38
2022-11-15T12:02:29.553Z,49.95
2022-11-15T12:05:19.312Z,53.90
2022-11-15T12:07:51.652Z,53.40
2022-11-15T12:10:28.857Z,54.25
2022-11-15T12:13:20.654Z,56.70
2022-11-15T12:16:02.142Z,50.78
2022-11-15T12:18:32.788Z,56.17
2022-11-15T12:21:09.679Z,57.85
2022-11-15T12:23:55.824Z,54.90
2022-11-15T12:26:34.591Z,55.58
2022-11-15T12:29:10.663Z,58.63
2022-11-15T12:31:40.700Z,58.00
2022-11-15T12:34:25.977Z,58.58
2022-11-15T12:36:54.219Z,55.83
2022-11-15T12:39:42.021Z,57.25
2022-11-15T12:42:12.674Z,56.75
2022-11-15T12:44:40.187Z,61.15
2022-11-15T12:47:10.987Z,57.72
2022-11-15T12:49:38.550Z,60.22
2022-11-15T12:52:08.698Z,61.45
2022-11-15T12:54:42.319Z,59.38
2022-11-15T12:57:33.850Z,54.70
2022-11-15T13:00:25.283Z,61.22
2022-11-15T13:03:24.580Z,58.50
2022-11-15T13:05:57.498Z,58.75
2022-11-15T13:08:48.605Z,59.95
2022-11-15T13:11:45.739Z,59.83
2022-11-15T13:14:38.388Z,57.05
2022-11-15T13:17:20.825Z,63.03
2022-11-15T13:20:01.506Z,66.60
2022-11-15T13:23:14.488Z,58.92
2022-11-15T13:26:00.995Z,59.67
2022-11-15T13:28:31.585Z,64.72
2022-11-15T13:31:29.838Z,60.83
2022-11-15T13:34:36.562Z,66.78
2022-11-15T13:37:03.423Z,61.53
2022-11-15T13:39:33.746Z,63.90
2022-11-15T13:42:01.807Z,63.22
2022-11-15T13:44:32.846Z,63.92
2022-11-15T13:47:05.410Z,65.18
2022-11-15T13:49:34.669Z,66.22
2022-11-15T13:52:06.543Z,57.83
2022-11-15T13:55:04.594Z,60.75
2022-11-15T13:57:49.497Z,60.22
2022-11-15T14:00:44.716Z,56.83
2022-11-15T14:03:18.644Z,61.72
2022-11-15T14:06:13.091Z,62.58
2022-11-15T14:08:58.084Z,64.38
2022-11-15T14:11:26.209Z,66.80
2022-11-15T14:14:10.252Z,67.22
2022-11-15T14:16:46.343Z,69.28
2022-11-15T14:19:36.037Z,75.32
2022-11-15T14:22:16.826Z,74.65
2022-11-15T14:24:47.725Z,66.68
2022-11-15T14:27:21.557Z,73.85
2022-11-15T14:29:50.584Z,73.82
2022-11-15T14:32:22.040Z,75.60
2022-11-15T14:34:55.162Z,64.88
2022-11-15T14:37:35.565Z,69.05
2022-11-15T14:40:06.220Z,66.88
2022-11-15T14:42:34.090Z,68.30
2022-11-15T14:45:02.335Z,72.35
2022-11-15T14:47:29.993Z,69.50
2022-11-15T14:49:57.860Z,66.28
2022-11-15T14:52:37.321Z,69.35
2022-11-15T14:55:24.210Z,70.18
2022-11-15T14:57:53.407Z,77.18
2022-11-15T15:00:22.205Z,82.05
2022-11-15T15:02:55.085Z,68.63
2022-11-15T15:05:34.264Z,73.20
2022-11-15T15:08:02.454Z,80.32
2022-11-15T15:10:42.448Z,72.38
2022-11-15T15:13:25.091Z,81.35
2022-11-15T15:15:54.031Z,79.15
2022-11-15T15:18:21.972Z,87.55
2022-11-15T15:21:08.196Z,88.05
2022-11-15T15:23:36.776Z,85.10
2022-11-15T15:26:04.948Z,80.97
2022-11-15T15:28:34.857Z,78.07
2022-11-15T15:31:03.429Z,77.65
2022-11-15T15:33:31.025Z,85.10
2022-11-15T15:36:00.199Z,95.78
2022-11-15T15:38:27.979Z,94.25
2022-11-15T15:40:56.327Z,81.50
2022-11-15T15:43:23.915Z,79.47
2022-11-15T15:45:51.823Z,79.90
2022-11-15T15:48:19.571Z,73.97
2022-11-15T15:50:48.304Z,74.32
2022-11-15T15:53:15.992Z,73.13
2022-11-15T15:55:43.830Z,69.45
2022-11-15T15:58:11.423Z,72.22
2022-11-15T16:00:39.834Z,75.60
2022-11-15T16:03:07.506Z,75.78
2022-11-15T16:05:35.587Z,78.88
2022-11-15T16:08:03.588Z,77.72
2022-11-15T16:10:35.283Z,82.93
2022-11-15T16:13:03.030Z,76.18
2022-11-15T16:15:33.033Z,80.63
2022-11-15T16:18:02.572Z,79.40
2022-11-15T16:20:43.318Z,75.65
2022-11-15T16:23:16.081Z,64.82
2022-11-15T16:25:53.078Z,74.50
2022-11-15T16:28:22.609Z,67.10
2022-11-15T16:31:00.689Z,62.30
2022-11-15T16:33:28.489Z,71.78
2022-11-15T16:35:56.467Z,76.30
2022-11-15T16:38:24.112Z,70.55
2022-11-15T16:40:52.074Z,74.75
2022-11-15T16:43:19.777Z,83.82
2022-11-15T16:45:49.454Z,82.20
2022-11-15T16:48:29.857Z,75.43
2022-11-15T16:50:59.669Z,88.20
2022-11-15T16:53:28.229Z,89.85
2022-11-15T16:55:56.565Z,89.05
2022-11-15T16:58:25.073Z,98.45
2022-11-15T17:00:57.242Z,90.22
2022-11-15T17:03:25.313Z,77.20
2022-11-15T17:05:57.860Z,75.53
2022-11-15T17:08:28.632Z,72.68
2022-11-15T17:10:56.527Z,77.18
2022-11-15T17:13:24.238Z,89.25
2022-11-15T17:16:02.938Z,81.80
2022-11-15T17:18:30.758Z,81.70
2022-11-15T17:21:03.363Z,69.47
2022-11-15T17:23:30.989Z,69.75
2022-11-15T17:26:17.881Z,64.13
2022-11-15T17:28:56.699Z,65.25
2022-11-15T17:31:25.493Z,70.90
2022-11-15T17:33:53.371Z,67.63
2022-11-15T17:36:21.192Z,67.82
2022-11-15T17:38:56.585Z,70.22
2022-11-15T17:41:28.289Z,72.70
2022-11-15T17:44:00.131Z,69.40
2022-11-15T17:46:29.323Z,78.82
2022-11-15T17:48:58.044Z,76.90
2022-11-15T17:51:26.315Z,78.85
2022-11-15T17:53:55.337Z,66.45
2022-11-15T17:56:25.410Z,68.75
2022-11-15T17:58:58.856Z,73.45
2022-11-15T18:01:35.060Z,78.03
2022-11-15T18:04:05.570Z,72.82
2022-11-15T18:06:35.073Z,64.75
2022-11-15T18:09:03.917Z,67.13
2022-11-15T18:11:41.451Z,60.10
2022-11-15T18:14:13.776Z,55.40
2022-11-15T18:16:42.157Z,56.28
2022-11-15T18:19:13.362Z,56.33
2022-11-15T18:21:57.931Z,61.78
2022-11-15T18:24:34.933Z,58.53
2022-11-15T18:27:05.296Z,63.58
2022-11-15T18:29:34.615Z,44.25
2022-11-15T18:32:05.075Z,45.83
2022-11-15T18:34:34.131Z,44.03
2022-11-15T18:37:03.403Z,44.03
2022-11-15T18:39:31.217Z,45.13
2022-11-15T18:41:59.511Z,47.25
2022-11-15T18:44:30.130Z,49.53
2022-11-15T18:46:58.658Z,54.13
2022-11-15T18:49:26.464Z,51.33
2022-11-15T18:51:54.967Z,52.38
2022-11-15T18:54:25.598Z,47.95
2022-11-15T18:56:56.139Z,49.20
2022-11-15T18:59:23.811Z,55.25
2022-11-15T19:01:52.241Z,42.25
2022-11-15T19:04:20.874Z,47.63
2022-11-15T19:06:50.515Z,44.13
2022-11-15T19:09:19.686Z,42.55
2022-11-15T19:11:51.540Z,43.45
2022-11-15T19:14:23.904Z,39.17
2022-11-15T19:16:52.761Z,49.28
2022-11-15T19:19:23.794Z,46.17
2022-11-15T19:21:52.627Z,40.22
2022-11-15T19:24:21.039Z,43.75
2022-11-15T19:26:49.198Z,41.05
2022-11-15T19:29:18.213Z,37.17
2022-11-15T19:31:48.643Z,36.25
2022-11-15T19:34:17.886Z,41.88
2022-11-15T19:36:46.497Z,39.35
2022-11-15T19:39:17.894Z,43.10
2022-11-15T19:41:46.473Z,41.05
2022-11-15T19:44:15.122Z,39.75
2022-11-15T19:46:44.379Z,36.70
2022-11-15T19:49:12.304Z,38.47
2022-11-15T19:51:42.661Z,36.70
2022-11-15T19:54:11.082Z,37.60
2022-11-15T19:56:40.174Z,40.33
2022-11-15T19:59:08.133Z,39.50
2022-11-15T20:01:38.843Z,34.72
2022-11-15T20:04:08.076Z,35.47
2022-11-15T20:06:42.212Z,42.25
2022-11-15T20:11:41.866Z,38.03
2022-11-15T20:14:11.649Z,38.70
2022-11-15T20:16:39.905Z,42.63
2022-11-15T20:19:08.696Z,41.03
2022-11-15T20:21:36.878Z,44.75
2022-11-15T20:24:05.355Z,42.88
2022-11-15T20:26:33.383Z,41.00
2022-11-15T20:29:02.990Z,43.03
2022-11-15T20:31:31.843Z,36.28
2022-11-15T20:33:59.690Z,33.78
2022-11-15T20:36:27.869Z,36.83
2022-11-15T20:38:59.498Z,39.20
2022-11-15T20:41:28.136Z,41.22
2022-11-15T20:43:55.980Z,34.58
2022-11-15T20:46:23.988Z,32.90
2022-11-15T20:48:51.520Z,34.88
2022-11-15T20:51:20.445Z,33.25
2022-11-15T20:53:48.453Z,30.48
2022-11-15T20:56:18.972Z,34.75
2022-11-15T20:58:48.251Z,31.15
2022-11-15T21:01:17.877Z,33.17
2022-11-15T21:03:45.737Z,31.17
2022-11-15T21:06:13.717Z,36.13
2022-11-15T21:09:00.278Z,31.45
2022-11-15T21:11:46.738Z,33.42
2022-11-15T21:14:14.301Z,30.73
2022-11-15T21:16:42.171Z,28.80
2022-11-15T21:19:10.185Z,27.00
2022-11-15T21:21:38.801Z,29.33
2022-11-15T21:24:08.107Z,32.85
2022-11-15T21:26:36.644Z,28.27
2022-11-15T21:29:04.875Z,31.83
2022-11-15T21:31:32.915Z,36.10
2022-11-15T21:34:03.936Z,30.45
2022-11-15T21:36:31.914Z,35.67
2022-11-15T21:38:59.574Z,30.83
2022-11-15T21:41:27.891Z,34.72
2022-11-15T21:44:03.432Z,37.88
2022-11-15T21:46:32.256Z,35.85
2022-11-15T21:49:00.027Z,41.42
2022-11-15T21:51:27.896Z,41.83
2022-11-15T21:53:56.357Z,39.33
2022-11-15T21:56:25.737Z,35.60
2022-11-15T21:58:54.896Z,38.80
2022-11-15T22:01:43.325Z,42.03
2022-11-15T22:04:11.165Z,34.17
2022-11-15T22:06:39.280Z,43.13
2022-11-15T22:09:07.739Z,43.53
2022-11-15T22:11:36.616Z,40.80
2022-11-15T22:14:04.647Z,41.00
2022-11-15T22:16:33.290Z,39.40
2022-11-15T22:19:01.233Z,38.42
2022-11-15T22:21:29.531Z,44.42
2022-11-15T22:23:57.612Z,36.63
2022-11-15T22:26:25.716Z,38.88
2022-11-15T22:28:53.481Z,41.90
2022-11-15T22:31:21.527Z,41.13
2022-11-15T22:33:49.404Z,43.75
2022-11-15T22:36:17.579Z,42.95
2022-11-15T22:38:45.405Z,43.38
2022-11-15T22:41:13.552Z,40.55
2022-11-15T22:43:41.290Z,45.40
2022-11-15T22:46:10.517Z,40.83
2022-11-15T22:48:39.851Z,48.28
2022-11-15T22:51:08.572Z,42.08
2022-11-15T22:53:36.576Z,43.75
2022-11-15T22:56:06.218Z,47.50
2022-11-15T22:58:34.515Z,44.28
2022-11-15T23:01:05.029Z,47.63
2022-11-15T23:03:34.216Z,46.92
2022-11-15T23:06:07.167Z,41.03
2022-11-15T23:08:35.572Z,47.80
2022-11-15T23:11:23.335Z,39.50
2022-11-15T23:13:52.238Z,44.05
2022-11-15T23:16:24.027Z,44.03
2022-11-15T23:18:54.627Z,39.60
2022-11-15T23:22:07.551Z,44.25
2022-11-15T23:24:35.410Z,43.83
2022-11-15T23:27:07.380Z,44.88
2022-11-15T23:29:56.438Z,42.97
2022-11-15T23:32:43.058Z,44.63
2022-11-15T23:35:10.975Z,44.72
2022-11-15T23:37:39.098Z,39.13
2022-11-15T23:40:07.515Z,45.45
2022-11-15T23:42:35.573Z,41.30
2022-11-15T23:45:03.498Z,42.10
2022-11-15T23:47:31.500Z,43.03
2022-11-15T23:49:59.236Z,39.83
2022-11-15T23:52:27.313Z,41.30
2022-11-15T23:54:55.050Z,43.58
2022-11-15T23:57:23.363Z,42.92
2022-11-15T23:59:51.221Z,45.13
